Surface observations / UK / EGBB

Quebec | Canada | USA | France | UK | Europe | Elsewhere

Display: Info & Location for EGBB | Help decoding METAR

EGBB BIRMINGHAM AIRPORT -- UK
Raw surface observations for station EGBB
EGBB 312350Z 17011KT 9999 SCT023 16/14 Q1011=
EGBB 312320Z 17008KT 9999 SCT021 16/14 Q1011=
EGBB 312250Z 16010KT CAVOK 15/13 Q1011=
EGBB 312220Z 15010KT 9999 BKN018 15/13 Q1011=
EGBB 312150Z 16011KT 9999 BKN018 15/13 Q1011=
EGBB 312120Z 16010KT CAVOK 15/13 Q1011=
EGBB 312050Z 16009KT 9999 FEW031 15/12 Q1012=
EGBB 312020Z 17006KT CAVOK 15/12 Q1012=
EGBB 311950Z 16007KT CAVOK 15/12 Q1012=
EGBB 311920Z 16009KT CAVOK 16/12 Q1012=
EGBB 311850Z 16011KT CAVOK 16/12 Q1012=
EGBB 311820Z 16011KT CAVOK 17/13 Q1012=
EGBB 311750Z 16010KT CAVOK 17/13 Q1012=
EGBB 311720Z 16009KT CAVOK 17/13 Q1012=
EGBB 311650Z 15010KT 9000 NSC 18/13 Q1012=
EGBB 311620Z 15011KT CAVOK 18/13 Q1012=
EGBB 311550Z 16011KT CAVOK 19/13 Q1012=
EGBB 311520Z 17010KT CAVOK 20/12 Q1012=
EGBB 311450Z 16011KT CAVOK 20/12 Q1012=
EGBB 311420Z 16010KT CAVOK 20/13 Q1012=
EGBB 311350Z 16012KT CAVOK 20/13 Q1012=
EGBB 311320Z 15009KT CAVOK 19/14 Q1013=
EGBB 311250Z 16008KT CAVOK 18/14 Q1013=
EGBB 311220Z 16008KT CAVOK 18/14 Q1014=
EGBB 311150Z 15009KT 9000 NSC 17/14 Q1014=
EGBB 311120Z 15011KT 8000 NSC 17/14 Q1014=
EGBB 311050Z 15010KT 6000 NSC 16/14 Q1015=
EGBB 311020Z 16008KT 6000 NSC 16/14 Q1015=
EGBB 310950Z 15007KT 6000 NSC 15/14 Q1015=
EGBB 310920Z 16006KT 5000 HZ NSC 15/14 Q1015=
EGBB 310850Z 16007KT 4900 HZ NSC 14/14 Q1015=
EGBB 310820Z 16006KT 4600 BR NSC 14/13 Q1015=
EGBB 310750Z 16006KT 4000 BR NSC 14/13 Q1015=
EGBB 310720Z 16004KT 3300 BR NSC 14/13 Q1015=
EGBB 310650Z 18003KT 2900 BR NSC 13/13 Q1015=
EGBB 310620Z VRB02KT 3600 BR BKN006 14/13 Q1015=
EGBB 310550Z 16004KT 120V240 4600 HZ BKN006 BKN010 14/13 Q1015=
EGBB 310520Z 18004KT 140V220 4600 HZ BKN007 BKN011 15/14 Q1015=
EGBB 310450Z 16006KT 3500 HZ BKN007 BKN012 15/14 Q1015=
EGBB 310420Z 16008KT 4000 HZ BKN009 OVC013 15/14 Q1015=
EGBB 010420Z 21006KT 170V240 9000 -RA FEW029 14/12 Q1012=
EGBB 010350Z 21007KT 180V270 9999 -RA FEW024 15/12 Q1011=
EGBB 010320Z 21009KT 160V240 9999 FEW040 15/12 Q1011=
EGBB 010250Z AUTO 21009KT 170V260 9999 SCT027/// 16/13 Q1011=
EGBB 010220Z AUTO 21009KT 180V250 9999 FEW018/// 16/13 Q1011=
EGBB 010150Z AUTO 22007KT 170V250 9999 SCT012/// BKN017/// BKN023/// 17/14 Q1011=
EGBB 010120Z 18009KT 9999 -RA SCT017 BKN026 16/14 Q1011=
EGBB 010050Z 17008KT 9999 SCT019 BKN046 16/14 Q1011=
EGBB 010020Z 17009KT 9999 BKN021 16/14 Q1011=